Time;durP1;ratioP1;P1;durP2;ratioP2;P2;SDS_P1;SDS_P2;PMS_P1;PMS_P2;Temp;Humidity;BMP_temperature;BMP_pressure;BME280_temperature;BME280_humidity;BME280_pressure;Samples;Min_cycle;Max_cycle;Signal;HPM_P1;HPM_P2
2021/10/10 00:01:51;;;;;;;7.18;5.05;;;;;;;;;;5110863;28;20417;-49
2021/10/10 00:04:17;;;;;;;6.47;4.78;;;;;;;;;;5110934;28;20141;-49
2021/10/10 00:06:43;;;;;;;7.00;5.13;;;;;;;;;;5111555;28;20541;-48
2021/10/10 00:09:09;;;;;;;6.43;4.50;;;;;;;;;;5110768;28;20035;-49
2021/10/10 00:11:35;;;;;;;7.07;5.07;;;;;;;;;;5110728;28;20028;-49
2021/10/10 00:14:01;;;;;;;7.10;5.40;;;;;;;;;;5110696;28;20015;-49
2021/10/10 00:16:27;;;;;;;5.63;4.20;;;;;;;;;;5110598;28;20028;-48
2021/10/10 00:18:54;;;;;;;6.63;4.72;;;;;;;;;;5110465;28;20031;-48
2021/10/10 00:21:20;;;;;;;6.90;4.97;;;;;;;;;;5110503;28;20027;-48
2021/10/10 00:23:46;;;;;;;6.07;4.72;;;;;;;;;;5111403;28;20023;-48
2021/10/10 00:26:12;;;;;;;6.05;4.57;;;;;;;;;;5110562;28;20505;-48
2021/10/10 00:28:38;;;;;;;5.88;4.50;;;;;;;;;;5110609;28;20049;-48
2021/10/10 00:31:04;;;;;;;6.20;4.95;;;;;;;;;;5110304;28;20023;-48
2021/10/10 00:33:30;;;;;;;5.72;4.65;;;;;;;;;;5110252;28;20035;-47
2021/10/10 00:35:56;;;;;;;6.32;4.78;;;;;;;;;;5110492;28;20023;-48
2021/10/10 00:38:22;;;;;;;6.40;4.78;;;;;;;;;;5110234;28;20054;-50
2021/10/10 00:40:48;;;;;;;6.88;5.20;;;;;;;;;;5110857;28;20127;-49
2021/10/10 00:43:14;;;;;;;6.45;4.80;;;;;;;;;;5110835;28;20019;-49
2021/10/10 00:45:46;;;;;;;6.95;5.28;;;;;;;;;;5110181;28;20453;-49
2021/10/10 00:48:12;;;;;;;7.55;4.95;;;;;;;;;;5110139;28;20027;-47
2021/10/10 00:50:38;;;;;;;8.43;5.15;;;;;;;;;;5109907;28;20043;-47
2021/10/10 00:53:05;;;;;;;6.95;5.18;;;;;;;;;;5110019;28;20045;-48
2021/10/10 00:55:31;;;;;;;5.20;4.70;;;;;;;;;;5109849;28;20059;-48
2021/10/10 00:57:57;;;;;;;6.28;4.90;;;;;;;;;;5109843;28;20031;-49
2021/10/10 01:00:23;;;;;;;6.45;4.63;;;;;;;;;;5109878;28;20047;-48
2021/10/10 01:02:55;;;;;;;6.05;4.50;;;;;;;;;;5110308;28;20027;-49
2021/10/10 01:05:21;;;;;;;5.53;4.38;;;;;;;;;;5109735;28;20527;-48
2021/10/10 01:07:47;;;;;;;5.97;4.32;;;;;;;;;;5109820;28;20031;-49
2021/10/10 01:10:13;;;;;;;6.70;5.05;;;;;;;;;;5109433;28;20023;-48
2021/10/10 01:12:40;;;;;;;6.40;4.93;;;;;;;;;;5109534;28;20024;-49
2021/10/10 01:15:07;;;;;;;5.60;4.65;;;;;;;;;;5109529;28;20027;-48
2021/10/10 01:17:33;;;;;;;6.47;4.90;;;;;;;;;;5109595;28;20032;-55
2021/10/10 01:20:00;;;;;;;6.65;4.68;;;;;;;;;;5109621;28;20121;-50
2021/10/10 01:22:29;;;;;;;6.57;4.80;;;;;;;;;;5109523;28;20077;-54
2021/10/10 01:24:55;;;;;;;7.20;5.35;;;;;;;;;;5109333;28;20509;-48
2021/10/10 01:27:21;;;;;;;6.13;4.53;;;;;;;;;;5109996;28;20035;-48
2021/10/10 01:29:47;;;;;;;5.45;4.47;;;;;;;;;;5110107;28;20035;-48
2021/10/10 01:32:13;;;;;;;6.18;4.65;;;;;;;;;;5109412;28;20390;-48
2021/10/10 01:34:43;;;;;;;6.00;4.47;;;;;;;;;;5109309;28;20061;-48
2021/10/10 01:37:09;;;;;;;7.07;5.13;;;;;;;;;;5109323;28;20093;-47
2021/10/10 01:39:35;;;;;;;6.20;4.72;;;;;;;;;;5097800;28;20519;-48
2021/10/10 01:42:01;;;;;;;6.18;5.07;;;;;;;;;;5089709;28;20052;-48
2021/10/10 01:44:27;;;;;;;7.15;5.10;;;;;;;;;;5088543;28;20528;-49
2021/10/10 01:46:53;;;;;;;6.18;4.80;;;;;;;;;;5088785;28;20184;-48
2021/10/10 01:49:19;;;;;;;7.75;5.47;;;;;;;;;;5088766;28;20107;-49
2021/10/10 01:51:45;;;;;;;5.95;4.55;;;;;;;;;;5089153;28;20028;-48
2021/10/10 01:54:11;;;;;;;5.75;4.68;;;;;;;;;;5088759;28;20051;-47
2021/10/10 01:56:37;;;;;;;6.38;4.90;;;;;;;;;;5089099;28;20570;-47
2021/10/10 01:59:03;;;;;;;5.55;4.40;;;;;;;;;;5088595;28;20042;-47
2021/10/10 02:01:29;;;;;;;6.65;5.30;;;;;;;;;;5088517;28;20032;-47
2021/10/10 02:03:55;;;;;;;6.28;5.20;;;;;;;;;;5088807;28;20016;-47
2021/10/10 02:06:21;;;;;;;6.43;4.57;;;;;;;;;;5088664;28;20048;-48
2021/10/10 02:08:48;;;;;;;5.32;4.40;;;;;;;;;;5089110;28;20031;-48
2021/10/10 02:11:14;;;;;;;5.55;4.28;;;;;;;;;;5071043;28;20040;-48
2021/10/10 02:13:40;;;;;;;6.43;4.95;;;;;;;;;;5088414;28;20024;-48
2021/10/10 02:16:06;;;;;;;5.30;4.15;;;;;;;;;;5088513;28;20028;-47
2021/10/10 02:18:32;;;;;;;5.95;4.68;;;;;;;;;;5088498;28;20016;-47
2021/10/10 02:20:58;;;;;;;5.95;4.63;;;;;;;;;;5091488;28;20537;-49
2021/10/10 02:23:24;;;;;;;5.97;4.25;;;;;;;;;;5092533;28;20020;-47
2021/10/10 02:25:50;;;;;;;5.55;4.55;;;;;;;;;;5092371;28;20032;-50
2021/10/10 02:28:16;;;;;;;7.68;5.00;;;;;;;;;;5092763;28;20020;-48
2021/10/10 02:30:42;;;;;;;6.93;4.72;;;;;;;;;;5091916;28;20480;-48
2021/10/10 02:33:08;;;;;;;6.90;4.80;;;;;;;;;;5092262;28;20043;-47
2021/10/10 02:35:34;;;;;;;6.38;4.57;;;;;;;;;;5092331;28;20032;-47
2021/10/10 02:38:00;;;;;;;5.78;4.88;;;;;;;;;;5092264;28;20028;-48
2021/10/10 02:40:26;;;;;;;6.63;4.60;;;;;;;;;;5092188;28;20032;-48
2021/10/10 02:42:52;;;;;;;7.35;5.18;;;;;;;;;;5092020;28;20043;-48
2021/10/10 02:45:18;;;;;;;6.15;4.82;;;;;;;;;;5092655;28;20024;-48
2021/10/10 02:47:44;;;;;;;6.47;4.93;;;;;;;;;;5092038;28;20473;-48
2021/10/10 02:50:10;;;;;;;6.18;4.50;;;;;;;;;;5092040;28;20052;-47
2021/10/10 02:52:36;;;;;;;6.90;5.15;;;;;;;;;;5091902;28;20051;-48
2021/10/10 02:55:02;;;;;;;6.25;4.63;;;;;;;;;;5091835;28;20085;-48
2021/10/10 02:57:28;;;;;;;7.80;5.25;;;;;;;;;;5091807;28;20024;-47
2021/10/10 02:59:54;;;;;;;7.18;5.00;;;;;;;;;;5091794;28;20024;-48
2021/10/10 03:02:20;;;;;;;6.43;4.85;;;;;;;;;;5092482;28;20452;-48
2021/10/10 03:04:46;;;;;;;6.45;4.68;;;;;;;;;;5092091;28;20457;-49
2021/10/10 03:07:12;;;;;;;5.85;4.60;;;;;;;;;;5091780;28;20036;-47
2021/10/10 03:09:38;;;;;;;5.95;4.55;;;;;;;;;;5091707;28;20035;-48
2021/10/10 03:12:04;;;;;;;7.07;4.38;;;;;;;;;;5091463;28;20111;-48
2021/10/10 03:14:30;;;;;;;6.72;4.53;;;;;;;;;;5091681;28;20035;-47
2021/10/10 03:16:56;;;;;;;6.50;4.60;;;;;;;;;;5091693;28;20465;-48
2021/10/10 03:19:22;;;;;;;6.00;4.80;;;;;;;;;;5091804;28;20023;-50
2021/10/10 03:21:48;;;;;;;6.45;4.97;;;;;;;;;;5092000;28;20024;-47
2021/10/10 03:24:14;;;;;;;5.57;4.70;;;;;;;;;;5091458;28;20059;-52
2021/10/10 03:26:40;;;;;;;5.95;4.57;;;;;;;;;;5091273;28;20024;-49
2021/10/10 03:29:06;;;;;;;6.00;4.75;;;;;;;;;;5091200;28;20123;-49
2021/10/10 03:31:32;;;;;;;6.65;4.95;;;;;;;;;;5090249;28;20437;-48
2021/10/10 03:33:58;;;;;;;7.05;5.30;;;;;;;;;;5091071;28;20022;-48
2021/10/10 03:36:24;;;;;;;6.80;4.60;;;;;;;;;;5091146;28;20020;-48
2021/10/10 03:38:50;;;;;;;5.97;4.78;;;;;;;;;;5091735;28;20035;-48
2021/10/10 03:41:16;;;;;;;6.65;5.03;;;;;;;;;;5091026;28;20074;-48
2021/10/10 03:43:42;;;;;;;5.55;4.32;;;;;;;;;;5095442;28;20080;-48
2021/10/10 03:46:08;;;;;;;7.03;5.10;;;;;;;;;;5111243;28;20038;-47
2021/10/10 03:48:34;;;;;;;5.22;4.22;;;;;;;;;;5111169;28;20027;-48
2021/10/10 03:51:02;;;;;;;7.60;5.13;;;;;;;;;;5111164;28;20038;-48
2021/10/10 03:56:20;;;;;;;6.57;4.82;;;;;;;;;;5087763;28;20414;-48
2021/10/10 03:58:46;;;;;;;8.30;4.90;;;;;;;;;;5111096;28;20031;-48
2021/10/10 04:01:12;;;;;;;6.25;4.43;;;;;;;;;;5111131;28;20031;-48
2021/10/10 04:03:38;;;;;;;6.93;4.88;;;;;;;;;;5110992;28;20560;-47
2021/10/10 04:06:04;;;;;;;6.13;4.88;;;;;;;;;;5110867;28;20055;-48
2021/10/10 04:08:30;;;;;;;6.40;4.68;;;;;;;;;;5110935;28;20034;-48
2021/10/10 04:10:56;;;;;;;6.03;4.57;;;;;;;;;;5110786;28;20024;-48
2021/10/10 04:13:22;;;;;;;6.35;4.60;;;;;;;;;;5111453;28;20276;-48
2021/10/10 04:15:48;;;;;;;5.68;4.28;;;;;;;;;;5110729;28;20024;-48
2021/10/10 04:18:14;;;;;;;6.20;5.05;;;;;;;;;;5110724;28;20019;-49
2021/10/10 04:20:40;;;;;;;7.57;5.57;;;;;;;;;;5110579;28;20480;-47
2021/10/10 04:23:06;;;;;;;6.95;5.10;;;;;;;;;;5110867;28;20019;-47
2021/10/10 04:25:32;;;;;;;6.88;4.93;;;;;;;;;;5110594;28;20406;-48
2021/10/10 04:27:58;;;;;;;6.43;4.72;;;;;;;;;;5110396;28;20069;-48
2021/10/10 04:30:24;;;;;;;7.30;5.20;;;;;;;;;;5110862;28;20118;-47
2021/10/10 04:32:50;;;;;;;7.55;5.15;;;;;;;;;;5110438;28;20542;-47
2021/10/10 04:35:17;;;;;;;6.72;5.05;;;;;;;;;;5110162;28;20020;-48
2021/10/10 04:37:43;;;;;;;6.68;5.25;;;;;;;;;;5110271;28;20153;-48
2021/10/10 04:40:09;;;;;;;6.18;5.25;;;;;;;;;;5091900;28;20469;-48
2021/10/10 04:42:36;;;;;;;6.88;5.30;;;;;;;;;;5110161;28;20141;-47
2021/10/10 04:45:02;;;;;;;8.32;5.85;;;;;;;;;;5110187;28;20024;-48
2021/10/10 04:47:28;;;;;;;10.20;5.25;;;;;;;;;;5110151;28;20024;-48
2021/10/10 04:49:54;;;;;;;7.65;5.28;;;;;;;;;;5110586;28;20050;-47
2021/10/10 04:52:20;;;;;;;7.00;5.25;;;;;;;;;;5110054;28;20034;-47
2021/10/10 04:54:47;;;;;;;6.50;5.07;;;;;;;;;;5110023;28;20020;-50
2021/10/10 04:57:14;;;;;;;7.47;5.40;;;;;;;;;;5109874;28;20514;-49
2021/10/10 04:59:40;;;;;;;7.30;5.45;;;;;;;;;;5110012;28;20031;-48
2021/10/10 05:02:06;;;;;;;7.40;5.32;;;;;;;;;;5109920;28;20080;-50
2021/10/10 05:04:32;;;;;;;8.50;5.68;;;;;;;;;;5109666;28;20023;-47
2021/10/10 05:06:58;;;;;;;6.15;5.05;;;;;;;;;;5109820;28;20031;-52
2021/10/10 05:09:24;;;;;;;8.13;5.78;;;;;;;;;;5110382;28;20051;-48
2021/10/10 05:11:50;;;;;;;9.45;5.93;;;;;;;;;;5109615;28;20031;-47
2021/10/10 05:14:16;;;;;;;6.35;5.03;;;;;;;;;;5109480;28;20023;-47
2021/10/10 05:16:42;;;;;;;8.05;5.43;;;;;;;;;;5109648;28;20444;-48
2021/10/10 05:19:08;;;;;;;7.35;5.47;;;;;;;;;;5109571;28;20031;-48
2021/10/10 05:21:34;;;;;;;6.07;4.82;;;;;;;;;;5109542;28;20031;-48
2021/10/10 05:24:00;;;;;;;7.65;5.45;;;;;;;;;;5109694;28;20478;-51
2021/10/10 05:26:26;;;;;;;6.85;4.90;;;;;;;;;;5110078;28;20032;-49
2021/10/10 05:28:52;;;;;;;7.35;5.70;;;;;;;;;;5091109;28;20034;-55
2021/10/10 05:31:18;;;;;;;7.88;5.25;;;;;;;;;;5109353;28;20500;-48
2021/10/10 05:33:44;;;;;;;8.45;5.18;;;;;;;;;;5109229;28;20020;-51
2021/10/10 05:36:10;;;;;;;7.22;5.00;;;;;;;;;;5109384;28;20027;-49
2021/10/10 05:38:36;;;;;;;6.35;5.07;;;;;;;;;;5109261;28;20019;-47
2021/10/10 05:41:02;;;;;;;6.60;5.03;;;;;;;;;;5109263;28;20420;-48
2021/10/10 05:43:28;;;;;;;7.78;5.22;;;;;;;;;;5109965;28;20020;-47
2021/10/10 05:45:54;;;;;;;6.80;4.82;;;;;;;;;;5109607;28;20019;-47
2021/10/10 05:48:20;;;;;;;6.22;5.03;;;;;;;;;;5109117;28;20030;-49
2021/10/10 05:50:46;;;;;;;6.78;5.25;;;;;;;;;;5109170;28;20027;-48
2021/10/10 05:53:12;;;;;;;6.97;5.40;;;;;;;;;;5109095;28;20028;-48
2021/10/10 05:55:39;;;;;;;5.32;4.40;;;;;;;;;;5108615;28;20024;-48
2021/10/10 05:58:08;;;;;;;5.82;4.68;;;;;;;;;;5109103;28;20425;-48
2021/10/10 06:00:34;;;;;;;6.75;4.85;;;;;;;;;;5101037;28;20040;-48
2021/10/10 06:03:00;;;;;;;5.88;4.60;;;;;;;;;;5109496;28;20486;-51
2021/10/10 06:05:26;;;;;;;5.97;4.65;;;;;;;;;;5109594;28;20039;-47
2021/10/10 06:07:52;;;;;;;6.10;4.30;;;;;;;;;;5108957;28;20054;-48
2021/10/10 06:10:18;;;;;;;7.30;4.65;;;;;;;;;;5109061;28;20507;-49
2021/10/10 06:12:44;;;;;;;6.28;4.95;;;;;;;;;;5108783;28;20043;-48
2021/10/10 06:15:11;;;;;;;6.53;4.80;;;;;;;;;;5108820;28;20445;-48
2021/10/10 06:17:37;;;;;;;6.43;4.63;;;;;;;;;;5108906;28;20020;-50
2021/10/10 06:20:04;;;;;;;6.60;4.53;;;;;;;;;;5108866;28;20066;-48
2021/10/10 06:22:30;;;;;;;5.57;4.25;;;;;;;;;;5109497;28;20020;-47
2021/10/10 06:24:56;;;;;;;6.00;4.63;;;;;;;;;;5108877;28;20505;-48
2021/10/10 06:27:22;;;;;;;5.25;4.22;;;;;;;;;;5108889;28;20031;-48
2021/10/10 06:29:48;;;;;;;7.90;5.00;;;;;;;;;;5108909;28;20047;-47
2021/10/10 06:32:14;;;;;;;5.75;4.57;;;;;;;;;;5108698;28;20446;-47
2021/10/10 06:34:41;;;;;;;6.25;4.40;;;;;;;;;;5108744;28;20023;-49
2021/10/10 06:37:07;;;;;;;6.20;4.72;;;;;;;;;;5108775;28;20062;-48
2021/10/10 06:39:34;;;;;;;6.80;4.82;;;;;;;;;;5109021;28;20032;-48
2021/10/10 06:42:01;;;;;;;6.57;5.10;;;;;;;;;;5109280;28;20023;-47
2021/10/10 06:44:27;;;;;;;8.18;4.97;;;;;;;;;;5108615;28;20027;-51
2021/10/10 06:46:53;;;;;;;6.65;5.07;;;;;;;;;;5108693;28;20102;-47
2021/10/10 06:49:19;;;;;;;5.80;4.63;;;;;;;;;;5108643;28;20062;-47
2021/10/10 06:51:45;;;;;;;7.25;5.40;;;;;;;;;;5108514;28;20115;-48
2021/10/10 06:54:11;;;;;;;7.28;5.40;;;;;;;;;;5108474;28;20157;-48
2021/10/10 06:56:37;;;;;;;6.70;5.35;;;;;;;;;;5108510;28;20058;-47
2021/10/10 06:59:03;;;;;;;6.57;5.10;;;;;;;;;;5091027;28;20027;-48
2021/10/10 07:01:30;;;;;;;6.43;4.75;;;;;;;;;;5108780;28;20023;-47
2021/10/10 07:03:56;;;;;;;6.60;5.18;;;;;;;;;;5108540;28;20031;-47
2021/10/10 07:06:22;;;;;;;6.53;4.78;;;;;;;;;;5109189;28;20099;-48
2021/10/10 07:08:48;;;;;;;7.75;5.43;;;;;;;;;;5112108;28;20051;-48
2021/10/10 07:11:14;;;;;;;6.93;5.18;;;;;;;;;;5111981;28;20024;-49
2021/10/10 07:13:41;;;;;;;9.15;5.50;;;;;;;;;;5111857;28;20047;-48
2021/10/10 07:16:07;;;;;;;6.65;5.18;;;;;;;;;;5111948;28;20490;-48
2021/10/10 07:18:44;;;;;;;8.25;5.05;;;;;;;;;;5112517;28;20027;-47
2021/10/10 07:21:28;;;;;;;6.20;4.95;;;;;;;;;;5112030;28;20020;-47
2021/10/10 07:26:24;;;;;;;6.68;5.00;;;;;;;;;;5111752;28;20020;-47
2021/10/10 07:28:50;;;;;;;6.50;5.00;;;;;;;;;;5111651;28;20444;-48
2021/10/10 07:31:17;;;;;;;5.93;4.75;;;;;;;;;;5111577;28;20055;-48
2021/10/10 07:33:43;;;;;;;6.45;4.85;;;;;;;;;;5111520;28;20032;-54
2021/10/10 07:36:09;;;;;;;6.10;4.95;;;;;;;;;;5111550;28;20397;-51
2021/10/10 07:38:36;;;;;;;5.90;4.47;;;;;;;;;;5112103;28;20020;-52
2021/10/10 07:41:05;;;;;;;7.22;5.25;;;;;;;;;;5112100;28;20020;-48
2021/10/10 07:43:31;;;;;;;6.95;5.13;;;;;;;;;;5111386;28;20023;-49
2021/10/10 07:46:18;;;;;;;6.07;5.05;;;;;;;;;;5111533;28;20024;-48
2021/10/10 07:48:44;;;;;;;7.43;5.32;;;;;;;;;;5111243;28;20058;-48
2021/10/10 07:51:10;;;;;;;6.78;5.13;;;;;;;;;;5111151;28;20019;-47
2021/10/10 07:53:36;;;;;;;6.13;4.25;;;;;;;;;;5111966;28;20034;-47
2021/10/10 07:56:03;;;;;;;6.47;5.07;;;;;;;;;;5111808;28;20027;-48
2021/10/10 07:58:29;;;;;;;7.50;4.95;;;;;;;;;;5111155;28;20027;-49
2021/10/10 08:00:55;;;;;;;7.53;5.40;;;;;;;;;;5111092;28;20015;-47
2021/10/10 08:03:21;;;;;;;6.07;4.72;;;;;;;;;;5111029;28;20023;-48
2021/10/10 08:05:47;;;;;;;7.00;4.80;;;;;;;;;;5110852;28;20024;-47
2021/10/10 08:08:13;;;;;;;7.50;4.90;;;;;;;;;;5111072;28;20106;-48
2021/10/10 08:10:40;;;;;;;6.95;5.20;;;;;;;;;;5110903;28;20023;-48
2021/10/10 08:13:06;;;;;;;7.25;5.13;;;;;;;;;;5111271;28;20077;-51
2021/10/10 08:15:32;;;;;;;7.57;5.75;;;;;;;;;;5110733;28;20441;-47
2021/10/10 08:17:58;;;;;;;7.93;5.97;;;;;;;;;;5110371;28;20824;-47
2021/10/10 08:20:25;;;;;;;8.63;5.75;;;;;;;;;;5110653;28;20016;-48
2021/10/10 08:22:51;;;;;;;8.38;5.55;;;;;;;;;;5110699;28;20027;-47
2021/10/10 08:25:17;;;;;;;8.98;6.45;;;;;;;;;;5110637;28;20110;-48
2021/10/10 08:27:44;;;;;;;9.43;6.43;;;;;;;;;;5110678;28;20409;-47
2021/10/10 08:30:15;;;;;;;9.23;6.38;;;;;;;;;;5092216;28;20059;-48
2021/10/10 08:32:43;;;;;;;7.43;5.32;;;;;;;;;;5110365;28;20057;-48
2021/10/10 08:35:09;;;;;;;8.13;5.60;;;;;;;;;;5111057;28;20073;-48
2021/10/10 08:37:36;;;;;;;7.38;5.13;;;;;;;;;;5110978;28;20024;-48
2021/10/10 08:40:02;;;;;;;7.90;5.65;;;;;;;;;;5110387;28;20024;-48
2021/10/10 08:42:32;;;;;;;8.50;5.72;;;;;;;;;;5110396;28;20019;-47
2021/10/10 08:45:05;;;;;;;8.98;6.40;;;;;;;;;;5110181;28;20553;-47
2021/10/10 08:47:32;;;;;;;8.65;6.15;;;;;;;;;;5110193;28;20031;-47
2021/10/10 08:49:59;;;;;;;9.55;6.80;;;;;;;;;;5110223;28;20047;-48
2021/10/10 08:52:25;;;;;;;9.05;6.57;;;;;;;;;;5109875;28;20039;-49
2021/10/10 08:54:51;;;;;;;8.85;6.05;;;;;;;;;;5110042;28;20478;-47
2021/10/10 08:57:18;;;;;;;8.40;5.75;;;;;;;;;;5109924;28;20026;-49
2021/10/10 08:59:48;;;;;;;7.97;5.35;;;;;;;;;;5109849;28;20089;-49
2021/10/10 09:02:19;;;;;;;9.77;6.53;;;;;;;;;;5109885;28;20034;-49
2021/10/10 09:04:46;;;;;;;7.97;5.45;;;;;;;;;;5109890;28;20328;-48
2021/10/10 09:07:12;;;;;;;7.95;5.80;;;;;;;;;;5109955;28;20034;-49
2021/10/10 09:09:40;;;;;;;7.75;5.72;;;;;;;;;;5110316;28;20077;-48
2021/10/10 09:12:13;;;;;;;8.20;5.65;;;;;;;;;;5091205;28;20118;-48
2021/10/10 09:14:42;;;;;;;6.65;5.43;;;;;;;;;;5110203;28;20027;-48
2021/10/10 09:17:28;;;;;;;7.88;5.85;;;;;;;;;;5110191;28;20030;-47
2021/10/10 09:20:01;;;;;;;7.90;5.82;;;;;;;;;;5109450;28;20027;-47
2021/10/10 09:22:28;;;;;;;10.10;6.65;;;;;;;;;;5109648;28;20104;-47
2021/10/10 09:24:55;;;;;;;9.93;5.70;;;;;;;;;;5109411;28;20043;-48
2021/10/10 09:27:22;;;;;;;8.35;5.88;;;;;;;;;;5109447;28;20024;-47
2021/10/10 09:29:51;;;;;;;8.18;6.22;;;;;;;;;;5108406;28;20029;-51
2021/10/10 09:32:22;;;;;;;7.13;5.68;;;;;;;;;;5109251;28;20539;-47
2021/10/10 09:34:50;;;;;;;7.00;5.32;;;;;;;;;;5109171;28;20070;-48
2021/10/10 09:37:26;;;;;;;8.57;5.93;;;;;;;;;;5109153;28;20020;-48
2021/10/10 09:40:09;;;;;;;7.70;5.28;;;;;;;;;;5109513;28;20084;-48
2021/10/10 09:42:36;;;;;;;8.20;5.82;;;;;;;;;;5109450;28;20482;-49
2021/10/10 09:45:16;;;;;;;8.93;6.47;;;;;;;;;;5109214;28;20038;-48
2021/10/10 09:47:50;;;;;;;8.10;6.43;;;;;;;;;;5109750;28;20402;-47
2021/10/10 09:50:16;;;;;;;9.15;6.05;;;;;;;;;;5109129;28;20043;-47
2021/10/10 09:52:42;;;;;;;7.55;6.05;;;;;;;;;;5109572;28;20035;-47
2021/10/10 09:55:11;;;;;;;8.13;5.60;;;;;;;;;;5090944;28;20116;-48
2021/10/10 09:57:44;;;;;;;8.70;6.50;;;;;;;;;;5109081;28;20065;-48
2021/10/10 10:00:20;;;;;;;9.23;6.85;;;;;;;;;;5109624;28;20044;-47
2021/10/10 10:02:48;;;;;;;8.32;6.32;;;;;;;;;;5109005;28;20482;-48
2021/10/10 10:05:31;;;;;;;8.35;5.95;;;;;;;;;;5109551;28;20445;-48
2021/10/10 10:07:57;;;;;;;8.63;6.40;;;;;;;;;;5108670;28;20564;-49
2021/10/10 10:10:25;;;;;;;10.27;7.07;;;;;;;;;;5108495;28;20433;-48
2021/10/10 10:12:52;;;;;;;10.07;7.10;;;;;;;;;;5108781;28;20059;-47
2021/10/10 10:15:19;;;;;;;8.98;7.05;;;;;;;;;;5108972;28;20023;-47
2021/10/10 10:17:46;;;;;;;8.00;6.18;;;;;;;;;;5109487;28;20054;-48
2021/10/10 10:20:14;;;;;;;9.07;6.50;;;;;;;;;;5109356;28;20092;-47
2021/10/10 10:22:41;;;;;;;9.10;6.97;;;;;;;;;;5109315;28;20482;-48
2021/10/10 10:25:08;;;;;;;9.00;6.28;;;;;;;;;;5108768;28;20042;-50
2021/10/10 10:27:34;;;;;;;11.80;7.07;;;;;;;;;;5108641;28;20038;-46
2021/10/10 10:30:00;;;;;;;10.15;7.00;;;;;;;;;;5108666;28;20028;-47
2021/10/10 10:32:29;;;;;;;8.85;6.20;;;;;;;;;;5108884;28;20057;-47
2021/10/10 10:35:11;;;;;;;7.72;5.90;;;;;;;;;;5108703;28;20094;-48
2021/10/10 10:37:43;;;;;;;7.00;5.47;;;;;;;;;;5108708;28;20456;-47
2021/10/10 10:40:15;;;;;;;9.07;6.72;;;;;;;;;;5108838;28;20081;-47
2021/10/10 10:42:48;;;;;;;7.82;5.93;;;;;;;;;;5113125;28;20394;-47
2021/10/10 10:45:25;;;;;;;9.40;6.20;;;;;;;;;;5113191;28;20512;-47
2021/10/10 10:47:53;;;;;;;7.82;5.78;;;;;;;;;;5112521;28;20055;-48
2021/10/10 10:50:22;;;;;;;7.22;4.82;;;;;;;;;;5112336;28;20047;-47
2021/10/10 10:52:59;;;;;;;7.50;5.70;;;;;;;;;;5112396;28;20375;-47
2021/10/10 10:55:29;;;;;;;7.72;5.57;;;;;;;;;;5112227;28;20026;-48
2021/10/10 10:57:57;;;;;;;7.78;5.53;;;;;;;;;;5112276;28;20028;-48
2021/10/10 11:00:26;;;;;;;7.72;5.57;;;;;;;;;;5112259;28;20055;-48
2021/10/10 11:03:01;;;;;;;6.72;5.15;;;;;;;;;;5112034;28;20103;-50
2021/10/10 11:05:31;;;;;;;7.10;5.15;;;;;;;;;;5112085;28;20438;-52
2021/10/10 11:08:01;;;;;;;7.32;5.35;;;;;;;;;;5112167;28;20024;-50
2021/10/10 11:10:28;;;;;;;5.85;4.85;;;;;;;;;;5112092;28;20205;-47
2021/10/10 11:13:17;;;;;;;7.85;5.80;;;;;;;;;;5111934;28;20035;-47
2021/10/10 11:15:51;;;;;;;6.57;5.10;;;;;;;;;;5074558;28;20069;-47
2021/10/10 11:18:17;;;;;;;6.93;5.30;;;;;;;;;;5112419;28;20470;-48
2021/10/10 11:20:54;;;;;;;8.65;6.10;;;;;;;;;;5112011;28;20031;-47
2021/10/10 11:23:20;;;;;;;8.18;5.70;;;;;;;;;;5111750;28;20063;-49
2021/10/10 11:25:49;;;;;;;8.35;5.97;;;;;;;;;;5112186;28;20466;-51
2021/10/10 11:28:19;;;;;;;7.93;6.15;;;;;;;;;;5093834;28;20028;-49
2021/10/10 11:30:46;;;;;;;7.53;5.75;;;;;;;;;;5112417;28;20031;-50
2021/10/10 11:33:13;;;;;;;7.63;5.45;;;;;;;;;;5111494;28;20028;-49
2021/10/10 11:35:42;;;;;;;8.70;6.13;;;;;;;;;;5111517;28;20015;-48
2021/10/10 11:38:10;;;;;;;6.47;5.13;;;;;;;;;;5111453;28;20019;-51
2021/10/10 11:40:36;;;;;;;7.45;5.75;;;;;;;;;;5111461;28;20031;-47
2021/10/10 11:43:03;;;;;;;8.18;6.10;;;;;;;;;;5111499;28;20460;-47
2021/10/10 11:45:29;;;;;;;8.40;6.00;;;;;;;;;;5111166;28;20031;-47
2021/10/10 11:47:55;;;;;;;7.15;5.03;;;;;;;;;;5111374;28;20028;-48
2021/10/10 11:50:21;;;;;;;9.75;5.65;;;;;;;;;;5111413;28;20023;-46
2021/10/10 11:53:00;;;;;;;7.97;5.70;;;;;;;;;;5110963;28;20027;-46
2021/10/10 11:55:34;;;;;;;6.80;4.95;;;;;;;;;;5111261;28;20028;-47
2021/10/10 11:58:01;;;;;;;9.85;5.82;;;;;;;;;;5111159;28;20031;-47
2021/10/10 12:00:28;;;;;;;8.20;5.60;;;;;;;;;;5111142;28;20050;-47
2021/10/10 12:02:54;;;;;;;7.65;5.10;;;;;;;;;;5110979;28;20034;-47
2021/10/10 12:05:22;;;;;;;6.45;4.85;;;;;;;;;;5111498;28;20032;-46
2021/10/10 12:07:49;;;;;;;6.75;4.95;;;;;;;;;;5111668;28;20532;-47
2021/10/10 12:10:20;;;;;;;7.10;5.00;;;;;;;;;;5110832;28;20073;-47
2021/10/10 12:12:50;;;;;;;7.18;5.50;;;;;;;;;;5111438;28;20542;-46
2021/10/10 12:15:17;;;;;;;6.93;5.32;;;;;;;;;;5110789;28;20023;-46
2021/10/10 12:17:48;;;;;;;7.35;5.38;;;;;;;;;;5111245;28;20042;-47
2021/10/10 12:20:17;;;;;;;6.20;4.63;;;;;;;;;;5111146;28;20110;-47
2021/10/10 12:22:47;;;;;;;7.35;5.07;;;;;;;;;;5110665;28;20401;-47
2021/10/10 12:25:22;;;;;;;6.82;5.25;;;;;;;;;;5110662;28;20035;-47
2021/10/10 12:27:55;;;;;;;6.45;4.85;;;;;;;;;;5111237;28;20023;-47
2021/10/10 12:30:30;;;;;;;10.73;6.90;;;;;;;;;;5110674;28;20039;-46
2021/10/10 12:32:57;;;;;;;8.00;6.18;;;;;;;;;;5110344;28;20035;-47
2021/10/10 12:35:24;;;;;;;9.82;7.13;;;;;;;;;;5110439;28;20066;-47
2021/10/10 12:37:51;;;;;;;7.63;5.90;;;;;;;;;;5110914;28;20474;-48
2021/10/10 12:40:24;;;;;;;8.15;5.70;;;;;;;;;;5110456;28;20460;-46
2021/10/10 12:42:51;;;;;;;8.20;5.93;;;;;;;;;;5110673;28;20456;-46
2021/10/10 12:45:28;;;;;;;6.80;5.15;;;;;;;;;;5110295;28;20026;-48
2021/10/10 12:48:03;;;;;;;6.28;4.78;;;;;;;;;;5110351;28;20016;-49
2021/10/10 12:50:30;;;;;;;6.40;4.60;;;;;;;;;;5110138;28;20051;-47
2021/10/10 12:52:56;;;;;;;7.35;5.03;;;;;;;;;;5109932;28;20098;-47
2021/10/10 12:55:26;;;;;;;5.68;4.53;;;;;;;;;;5110533;28;20111;-47
2021/10/10 12:57:53;;;;;;;6.15;4.30;;;;;;;;;;5110567;28;20099;-47
2021/10/10 13:00:19;;;;;;;5.97;4.43;;;;;;;;;;5110497;28;20022;-48
2021/10/10 13:02:47;;;;;;;5.20;4.18;;;;;;;;;;5110178;28;20386;-47
2021/10/10 13:05:13;;;;;;;5.78;4.63;;;;;;;;;;5109847;28;20031;-47
2021/10/10 13:07:39;;;;;;;7.22;5.35;;;;;;;;;;5109737;28;20027;-47
2021/10/10 13:10:05;;;;;;;9.15;6.55;;;;;;;;;;5109758;28;20054;-47
2021/10/10 13:12:32;;;;;;;10.93;7.07;;;;;;;;;;5109533;28;20031;-48
2021/10/10 13:14:58;;;;;;;7.93;5.97;;;;;;;;;;5109727;28;20069;-47
2021/10/10 13:17:24;;;;;;;8.07;5.55;;;;;;;;;;5110275;28;20052;-46
2021/10/10 13:19:50;;;;;;;7.22;5.78;;;;;;;;;;5110115;28;20482;-46
2021/10/10 13:22:17;;;;;;;8.02;5.90;;;;;;;;;;5109422;28;20555;-47
2021/10/10 13:24:44;;;;;;;7.30;5.38;;;;;;;;;;5109326;28;20088;-47
2021/10/10 13:27:10;;;;;;;8.13;5.82;;;;;;;;;;5109475;28;20067;-47
2021/10/10 13:29:36;;;;;;;8.90;6.45;;;;;;;;;;5109231;28;20608;-47
2021/10/10 13:32:02;;;;;;;7.43;5.93;;;;;;;;;;5109350;28;20099;-47
2021/10/10 13:34:28;;;;;;;5.75;4.88;;;;;;;;;;5108972;28;20278;-48
2021/10/10 13:36:56;;;;;;;5.10;4.07;;;;;;;;;;5089830;28;20045;-47
2021/10/10 13:39:22;;;;;;;5.50;4.25;;;;;;;;;;5089445;28;20048;-47
2021/10/10 13:41:48;;;;;;;5.97;4.90;;;;;;;;;;5107984;28;20028;-47
2021/10/10 13:44:14;;;;;;;5.97;4.65;;;;;;;;;;5109241;28;20482;-47
2021/10/10 13:46:40;;;;;;;8.38;6.13;;;;;;;;;;5109165;28;20464;-47
2021/10/10 13:49:06;;;;;;;7.68;5.68;;;;;;;;;;5109081;28;20024;-47
2021/10/10 13:51:33;;;;;;;6.40;5.15;;;;;;;;;;5108690;28;20482;-47
2021/10/10 13:53:59;;;;;;;7.80;5.32;;;;;;;;;;5109672;28;20020;-47
2021/10/10 13:56:25;;;;;;;5.60;4.68;;;;;;;;;;5109927;28;20035;-58
2021/10/10 13:58:51;;;;;;;4.80;4.28;;;;;;;;;;5109206;28;20336;-47
2021/10/10 14:01:17;;;;;;;4.95;3.95;;;;;;;;;;5109065;28;20051;-46
2021/10/10 14:03:44;;;;;;;6.28;5.07;;;;;;;;;;5108948;28;20077;-46
2021/10/10 14:06:10;;;;;;;5.55;4.53;;;;;;;;;;5108953;28;20510;-46
2021/10/10 14:08:36;;;;;;;5.28;4.07;;;;;;;;;;5108949;28;20023;-47
2021/10/10 14:11:03;;;;;;;5.30;4.18;;;;;;;;;;5108783;28;20501;-47
2021/10/10 14:13:29;;;;;;;4.40;3.25;;;;;;;;;;5109519;28;20024;-46
2021/10/10 14:15:56;;;;;;;6.10;4.35;;;;;;;;;;5091996;28;20539;-51
2021/10/10 14:18:22;;;;;;;4.90;4.13;;;;;;;;;;5113064;28;20027;-51
2021/10/10 14:20:49;;;;;;;4.03;3.63;;;;;;;;;;5112942;28;20019;-50
2021/10/10 14:23:15;;;;;;;4.93;3.90;;;;;;;;;;5113089;28;20024;-47
2021/10/10 14:25:41;;;;;;;4.60;3.60;;;;;;;;;;5113062;28;20481;-48
2021/10/10 14:28:08;;;;;;;4.80;3.65;;;;;;;;;;5113004;28;20050;-49
2021/10/10 14:30:34;;;;;;;3.85;3.28;;;;;;;;;;5094487;28;20036;-48
2021/10/10 14:33:00;;;;;;;4.75;4.00;;;;;;;;;;5113347;28;20074;-48
2021/10/10 14:35:26;;;;;;;4.78;3.72;;;;;;;;;;5112774;28;20043;-47
2021/10/10 14:37:53;;;;;;;3.95;3.38;;;;;;;;;;5112854;28;20047;-47
2021/10/10 14:40:19;;;;;;;3.65;3.35;;;;;;;;;;5112707;28;20024;-48
2021/10/10 14:42:56;;;;;;;3.80;3.28;;;;;;;;;;5112689;28;20505;-47
2021/10/10 14:45:30;;;;;;;4.18;3.63;;;;;;;;;;5112693;28;20513;-47
2021/10/10 14:48:15;;;;;;;4.47;3.63;;;;;;;;;;5112433;28;20038;-49
2021/10/10 14:50:43;;;;;;;4.65;3.92;;;;;;;;;;5112557;28;20028;-47